sensor_id;sensor_type;location;lat;lon;timestamp;temperature;humidity
3380;DHT22;1703;51.964;7.642;2023-05-16T00:00:50;14.10;99.90
3380;DHT22;1703;51.964;7.642;2023-05-16T00:03:18;14.10;99.90
3380;DHT22;1703;51.964;7.642;2023-05-16T00:05:44;14.10;99.90
3380;DHT22;1703;51.964;7.642;2023-05-16T00:08:12;14.00;99.90
3380;DHT22;1703;51.964;7.642;2023-05-16T00:10:39;14.00;99.90
3380;DHT22;1703;51.964;7.642;2023-05-16T00:13:07;13.80;99.90
3380;DHT22;1703;51.964;7.642;2023-05-16T00:15:34;13.70;99.90
3380;DHT22;1703;51.964;7.642;2023-05-16T00:18:03;13.70;99.90
3380;DHT22;1703;51.964;7.642;2023-05-16T00:20:30;13.70;99.90
3380;DHT22;1703;51.964;7.642;2023-05-16T00:22:56;13.70;99.90
3380;DHT22;1703;51.964;7.642;2023-05-16T00:25:25;13.60;99.90
3380;DHT22;1703;51.964;7.642;2023-05-16T00:27:52;13.60;99.90
3380;DHT22;1703;51.964;7.642;2023-05-16T00:30:20;13.60;99.90
3380;DHT22;1703;51.964;7.642;2023-05-16T00:32:47;13.50;99.90
3380;DHT22;1703;51.964;7.642;2023-05-16T00:35:14;13.50;99.90
3380;DHT22;1703;51.964;7.642;2023-05-16T00:37:41;13.60;99.90
3380;DHT22;1703;51.964;7.642;2023-05-16T00:40:09;13.60;99.90
3380;DHT22;1703;51.964;7.642;2023-05-16T00:42:35;13.50;99.90
3380;DHT22;1703;51.964;7.642;2023-05-16T00:45:03;13.40;99.90
3380;DHT22;1703;51.964;7.642;2023-05-16T00:47:32;13.30;99.90
3380;DHT22;1703;51.964;7.642;2023-05-16T00:49:59;13.30;99.90
3380;DHT22;1703;51.964;7.642;2023-05-16T00:52:26;13.20;99.90
3380;DHT22;1703;51.964;7.642;2023-05-16T00:54:53;13.20;99.90
3380;DHT22;1703;51.964;7.642;2023-05-16T00:57:20;13.10;99.90
3380;DHT22;1703;51.964;7.642;2023-05-16T00:59:47;13.10;99.90
3380;DHT22;1703;51.964;7.642;2023-05-16T01:02:16;13.10;99.90
3380;DHT22;1703;51.964;7.642;2023-05-16T01:04:45;12.90;99.90
3380;DHT22;1703;51.964;7.642;2023-05-16T01:07:14;12.80;99.90
3380;DHT22;1703;51.964;7.642;2023-05-16T01:09:41;12.70;99.90
3380;DHT22;1703;51.964;7.642;2023-05-16T01:12:13;12.50;99.90
3380;DHT22;1703;51.964;7.642;2023-05-16T01:14:48;12.50;99.90
3380;DHT22;1703;51.964;7.642;2023-05-16T01:17:21;12.40;99.90
3380;DHT22;1703;51.964;7.642;2023-05-16T01:20:05;12.40;99.90
3380;DHT22;1703;51.964;7.642;2023-05-16T01:22:48;12.30;99.90
3380;DHT22;1703;51.964;7.642;2023-05-16T01:25:30;12.30;99.90
3380;DHT22;1703;51.964;7.642;2023-05-16T01:28:00;12.20;99.90
3380;DHT22;1703;51.964;7.642;2023-05-16T01:30:31;12.10;99.90
3380;DHT22;1703;51.964;7.642;2023-05-16T01:33:00;12.10;99.90
3380;DHT22;1703;51.964;7.642;2023-05-16T01:35:27;12.20;99.90
3380;DHT22;1703;51.964;7.642;2023-05-16T01:37:59;12.10;99.90
3380;DHT22;1703;51.964;7.642;2023-05-16T01:40:34;12.10;99.90
3380;DHT22;1703;51.964;7.642;2023-05-16T01:43:07;12.10;99.90
3380;DHT22;1703;51.964;7.642;2023-05-16T01:45:40;12.00;99.90
3380;DHT22;1703;51.964;7.642;2023-05-16T01:48:15;12.00;99.90
3380;DHT22;1703;51.964;7.642;2023-05-16T01:50:46;12.00;99.90
3380;DHT22;1703;51.964;7.642;2023-05-16T01:53:15;12.10;99.90
3380;DHT22;1703;51.964;7.642;2023-05-16T01:55:46;12.10;99.90
3380;DHT22;1703;51.964;7.642;2023-05-16T01:58:16;12.10;99.90
3380;DHT22;1703;51.964;7.642;2023-05-16T02:00:43;11.90;99.90
3380;DHT22;1703;51.964;7.642;2023-05-16T02:03:10;11.90;99.90
3380;DHT22;1703;51.964;7.642;2023-05-16T02:05:37;11.90;99.90
3380;DHT22;1703;51.964;7.642;2023-05-16T02:08:04;11.90;99.90
3380;DHT22;1703;51.964;7.642;2023-05-16T02:10:31;11.90;99.90
3380;DHT22;1703;51.964;7.642;2023-05-16T02:12:58;12.00;99.90
3380;DHT22;1703;51.964;7.642;2023-05-16T02:15:27;11.90;99.90
3380;DHT22;1703;51.964;7.642;2023-05-16T02:17:53;11.70;99.90
3380;DHT22;1703;51.964;7.642;2023-05-16T02:20:20;11.70;99.90
3380;DHT22;1703;51.964;7.642;2023-05-16T02:22:47;11.60;99.90
3380;DHT22;1703;51.964;7.642;2023-05-16T02:25:14;11.60;99.90
3380;DHT22;1703;51.964;7.642;2023-05-16T02:27:41;11.70;99.90
3380;DHT22;1703;51.964;7.642;2023-05-16T02:30:09;11.70;99.90
3380;DHT22;1703;51.964;7.642;2023-05-16T02:32:37;11.70;99.90
3380;DHT22;1703;51.964;7.642;2023-05-16T02:35:05;11.70;99.90
3380;DHT22;1703;51.964;7.642;2023-05-16T02:37:32;11.80;99.90
3380;DHT22;1703;51.964;7.642;2023-05-16T02:39:59;11.70;99.90
3380;DHT22;1703;51.964;7.642;2023-05-16T02:42:26;11.80;99.90
3380;DHT22;1703;51.964;7.642;2023-05-16T02:44:53;11.70;99.90
3380;DHT22;1703;51.964;7.642;2023-05-16T02:47:20;11.80;99.90
3380;DHT22;1703;51.964;7.642;2023-05-16T02:49:48;11.70;99.90
3380;DHT22;1703;51.964;7.642;2023-05-16T02:52:16;11.70;99.90
3380;DHT22;1703;51.964;7.642;2023-05-16T02:54:43;11.60;99.90
3380;DHT22;1703;51.964;7.642;2023-05-16T02:57:10;11.50;99.90
3380;DHT22;1703;51.964;7.642;2023-05-16T02:59:37;11.50;99.90
3380;DHT22;1703;51.964;7.642;2023-05-16T03:02:04;11.60;99.90
3380;DHT22;1703;51.964;7.642;2023-05-16T03:04:32;11.60;99.90
3380;DHT22;1703;51.964;7.642;2023-05-16T03:07:00;11.50;99.90
3380;DHT22;1703;51.964;7.642;2023-05-16T03:09:27;11.50;99.90
3380;DHT22;1703;51.964;7.642;2023-05-16T03:11:54;11.50;99.90
3380;DHT22;1703;51.964;7.642;2023-05-16T03:14:20;11.50;99.90
3380;DHT22;1703;51.964;7.642;2023-05-16T03:16:47;11.40;99.90
3380;DHT22;1703;51.964;7.642;2023-05-16T03:19:14;11.30;99.90
3380;DHT22;1703;51.964;7.642;2023-05-16T03:21:41;11.30;99.90
3380;DHT22;1703;51.964;7.642;2023-05-16T03:24:09;11.20;99.90
3380;DHT22;1703;51.964;7.642;2023-05-16T03:26:36;11.20;99.90
3380;DHT22;1703;51.964;7.642;2023-05-16T03:29:03;11.20;99.90
3380;DHT22;1703;51.964;7.642;2023-05-16T03:31:31;11.20;99.90
3380;DHT22;1703;51.964;7.642;2023-05-16T03:33:58;11.20;99.90
3380;DHT22;1703;51.964;7.642;2023-05-16T03:36:25;11.30;99.90
3380;DHT22;1703;51.964;7.642;2023-05-16T03:38:52;11.30;99.90
3380;DHT22;1703;51.964;7.642;2023-05-16T03:41:20;11.30;99.90
3380;DHT22;1703;51.964;7.642;2023-05-16T03:43:47;11.20;99.90
3380;DHT22;1703;51.964;7.642;2023-05-16T03:46:14;11.10;99.90
3380;DHT22;1703;51.964;7.642;2023-05-16T03:48:41;11.00;99.90
3380;DHT22;1703;51.964;7.642;2023-05-16T03:51:08;11.00;99.90
3380;DHT22;1703;51.964;7.642;2023-05-16T03:53:35;10.90;99.90
3380;DHT22;1703;51.964;7.642;2023-05-16T03:56:02;10.90;99.90
3380;DHT22;1703;51.964;7.642;2023-05-16T03:58:30;10.90;99.90
3380;DHT22;1703;51.964;7.642;2023-05-16T04:00:57;10.70;99.90
3380;DHT22;1703;51.964;7.642;2023-05-16T04:03:24;10.70;99.90
3380;DHT22;1703;51.964;7.642;2023-05-16T04:05:53;10.80;99.90
3380;DHT22;1703;51.964;7.642;2023-05-16T04:08:20;10.80;99.90
3380;DHT22;1703;51.964;7.642;2023-05-16T04:10:47;10.80;99.90
3380;DHT22;1703;51.964;7.642;2023-05-16T04:13:14;10.90;99.90
3380;DHT22;1703;51.964;7.642;2023-05-16T04:15:42;10.80;99.90
3380;DHT22;1703;51.964;7.642;2023-05-16T04:18:09;10.80;99.90
3380;DHT22;1703;51.964;7.642;2023-05-16T04:20:36;10.80;99.90
3380;DHT22;1703;51.964;7.642;2023-05-16T04:23:03;10.80;99.90
3380;DHT22;1703;51.964;7.642;2023-05-16T04:25:30;10.80;99.90
3380;DHT22;1703;51.964;7.642;2023-05-16T04:27:57;10.80;99.90
3380;DHT22;1703;51.964;7.642;2023-05-16T04:30:24;10.70;99.90
3380;DHT22;1703;51.964;7.642;2023-05-16T04:32:52;10.70;99.90
3380;DHT22;1703;51.964;7.642;2023-05-16T04:35:19;10.70;99.90
3380;DHT22;1703;51.964;7.642;2023-05-16T04:37:47;10.60;99.90
3380;DHT22;1703;51.964;7.642;2023-05-16T04:40:14;10.60;99.90
3380;DHT22;1703;51.964;7.642;2023-05-16T04:42:41;10.60;99.90
3380;DHT22;1703;51.964;7.642;2023-05-16T04:45:09;10.70;99.90
3380;DHT22;1703;51.964;7.642;2023-05-16T04:47:36;10.70;99.90
3380;DHT22;1703;51.964;7.642;2023-05-16T04:50:06;10.50;99.90
3380;DHT22;1703;51.964;7.642;2023-05-16T04:52:33;10.50;99.90
3380;DHT22;1703;51.964;7.642;2023-05-16T04:55:01;10.60;99.90
3380;DHT22;1703;51.964;7.642;2023-05-16T04:57:28;10.50;99.90
3380;DHT22;1703;51.964;7.642;2023-05-16T04:59:55;10.50;99.90
3380;DHT22;1703;51.964;7.642;2023-05-16T05:02:21;10.50;99.90
3380;DHT22;1703;51.964;7.642;2023-05-16T05:04:49;10.50;99.90
3380;DHT22;1703;51.964;7.642;2023-05-16T05:07:17;10.60;99.90
3380;DHT22;1703;51.964;7.642;2023-05-16T05:09:43;10.60;99.90
3380;DHT22;1703;51.964;7.642;2023-05-16T05:12:11;10.60;99.90
3380;DHT22;1703;51.964;7.642;2023-05-16T05:14:37;10.60;99.90
3380;DHT22;1703;51.964;7.642;2023-05-16T05:17:04;10.60;99.90
3380;DHT22;1703;51.964;7.642;2023-05-16T05:19:31;10.60;99.90
3380;DHT22;1703;51.964;7.642;2023-05-16T05:21:58;10.60;99.90
3380;DHT22;1703;51.964;7.642;2023-05-16T05:24:26;10.60;99.90
3380;DHT22;1703;51.964;7.642;2023-05-16T05:26:53;10.50;99.90
3380;DHT22;1703;51.964;7.642;2023-05-16T05:29:20;10.50;99.90
3380;DHT22;1703;51.964;7.642;2023-05-16T05:31:47;10.50;99.90
3380;DHT22;1703;51.964;7.642;2023-05-16T05:34:14;10.60;99.90
3380;DHT22;1703;51.964;7.642;2023-05-16T05:36:41;10.60;99.90
3380;DHT22;1703;51.964;7.642;2023-05-16T05:39:08;10.60;99.90
3380;DHT22;1703;51.964;7.642;2023-05-16T05:41:37;10.60;99.90
3380;DHT22;1703;51.964;7.642;2023-05-16T05:44:04;10.70;99.90
3380;DHT22;1703;51.964;7.642;2023-05-16T05:46:31;10.80;99.90
3380;DHT22;1703;51.964;7.642;2023-05-16T05:48:59;10.90;99.90
3380;DHT22;1703;51.964;7.642;2023-05-16T05:51:26;10.80;99.90
3380;DHT22;1703;51.964;7.642;2023-05-16T05:53:53;10.90;99.90
3380;DHT22;1703;51.964;7.642;2023-05-16T05:56:20;11.00;99.90
3380;DHT22;1703;51.964;7.642;2023-05-16T05:58:50;11.00;99.90
3380;DHT22;1703;51.964;7.642;2023-05-16T06:01:17;11.00;99.90
3380;DHT22;1703;51.964;7.642;2023-05-16T06:03:45;11.10;99.90
3380;DHT22;1703;51.964;7.642;2023-05-16T06:06:12;11.10;99.90
3380;DHT22;1703;51.964;7.642;2023-05-16T06:08:40;11.10;99.90
3380;DHT22;1703;51.964;7.642;2023-05-16T06:11:07;11.20;99.90
3380;DHT22;1703;51.964;7.642;2023-05-16T06:13:34;11.30;99.90
3380;DHT22;1703;51.964;7.642;2023-05-16T06:16:03;11.40;99.90
3380;DHT22;1703;51.964;7.642;2023-05-16T06:18:30;11.30;99.90
3380;DHT22;1703;51.964;7.642;2023-05-16T06:20:56;11.40;99.90
3380;DHT22;1703;51.964;7.642;2023-05-16T06:23:23;11.40;99.90
3380;DHT22;1703;51.964;7.642;2023-05-16T06:25:50;11.50;99.90
3380;DHT22;1703;51.964;7.642;2023-05-16T06:28:17;11.50;99.90
3380;DHT22;1703;51.964;7.642;2023-05-16T06:30:44;11.70;99.90
3380;DHT22;1703;51.964;7.642;2023-05-16T06:33:13;11.60;99.90
3380;DHT22;1703;51.964;7.642;2023-05-16T06:35:40;11.60;99.90
3380;DHT22;1703;51.964;7.642;2023-05-16T06:38:07;11.60;99.90
3380;DHT22;1703;51.964;7.642;2023-05-16T06:40:34;11.70;99.90
3380;DHT22;1703;51.964;7.642;2023-05-16T06:43:02;11.80;99.90
3380;DHT22;1703;51.964;7.642;2023-05-16T06:45:28;11.80;99.90
3380;DHT22;1703;51.964;7.642;2023-05-16T06:47:55;11.90;99.90
3380;DHT22;1703;51.964;7.642;2023-05-16T06:50:24;12.00;99.90
3380;DHT22;1703;51.964;7.642;2023-05-16T06:52:50;12.10;99.90
3380;DHT22;1703;51.964;7.642;2023-05-16T06:55:17;12.20;99.90
3380;DHT22;1703;51.964;7.642;2023-05-16T06:57:44;12.10;99.90
3380;DHT22;1703;51.964;7.642;2023-05-16T07:00:12;11.90;99.90
3380;DHT22;1703;51.964;7.642;2023-05-16T07:02:39;11.90;99.90
3380;DHT22;1703;51.964;7.642;2023-05-16T07:05:06;11.90;99.90
3380;DHT22;1703;51.964;7.642;2023-05-16T07:07:34;12.10;99.90
3380;DHT22;1703;51.964;7.642;2023-05-16T07:10:01;12.10;99.90
3380;DHT22;1703;51.964;7.642;2023-05-16T07:12:28;12.20;99.90
3380;DHT22;1703;51.964;7.642;2023-05-16T07:14:55;12.30;99.90
3380;DHT22;1703;51.964;7.642;2023-05-16T07:17:22;12.30;99.90
3380;DHT22;1703;51.964;7.642;2023-05-16T07:19:49;12.30;99.90
3380;DHT22;1703;51.964;7.642;2023-05-16T07:22:16;12.40;99.90
3380;DHT22;1703;51.964;7.642;2023-05-16T07:24:44;12.50;99.90
3380;DHT22;1703;51.964;7.642;2023-05-16T07:27:11;12.60;99.90
3380;DHT22;1703;51.964;7.642;2023-05-16T07:29:38;12.50;99.90
3380;DHT22;1703;51.964;7.642;2023-05-16T07:32:05;12.50;99.90
3380;DHT22;1703;51.964;7.642;2023-05-16T07:34:32;12.50;99.90
3380;DHT22;1703;51.964;7.642;2023-05-16T07:37:00;12.50;99.90
3380;DHT22;1703;51.964;7.642;2023-05-16T07:39:27;12.40;99.90
3380;DHT22;1703;51.964;7.642;2023-05-16T07:41:56;12.60;99.90
3380;DHT22;1703;51.964;7.642;2023-05-16T07:44:22;12.70;99.90
3380;DHT22;1703;51.964;7.642;2023-05-16T07:46:49;12.80;99.90
3380;DHT22;1703;51.964;7.642;2023-05-16T07:49:16;12.70;99.90
3380;DHT22;1703;51.964;7.642;2023-05-16T07:51:43;12.60;99.90
3380;DHT22;1703;51.964;7.642;2023-05-16T07:54:10;12.50;99.90
3380;DHT22;1703;51.964;7.642;2023-05-16T07:56:37;12.40;99.90
3380;DHT22;1703;51.964;7.642;2023-05-16T07:59:05;12.40;99.90
3380;DHT22;1703;51.964;7.642;2023-05-16T08:01:32;12.50;99.90
3380;DHT22;1703;51.964;7.642;2023-05-16T08:03:59;12.50;99.90
3380;DHT22;1703;51.964;7.642;2023-05-16T08:06:26;12.70;99.90
3380;DHT22;1703;51.964;7.642;2023-05-16T08:08:54;13.00;99.90
3380;DHT22;1703;51.964;7.642;2023-05-16T08:11:21;13.20;99.90
3380;DHT22;1703;51.964;7.642;2023-05-16T08:13:48;13.30;99.90
3380;DHT22;1703;51.964;7.642;2023-05-16T08:16:19;13.30;99.90
3380;DHT22;1703;51.964;7.642;2023-05-16T08:18:46;13.40;99.90
3380;DHT22;1703;51.964;7.642;2023-05-16T08:21:13;13.30;99.90
3380;DHT22;1703;51.964;7.642;2023-05-16T08:23:41;13.40;99.90
3380;DHT22;1703;51.964;7.642;2023-05-16T08:26:08;13.50;99.90
3380;DHT22;1703;51.964;7.642;2023-05-16T08:28:35;13.50;99.90
3380;DHT22;1703;51.964;7.642;2023-05-16T08:31:01;13.50;99.90
3380;DHT22;1703;51.964;7.642;2023-05-16T08:33:29;13.50;99.90
3380;DHT22;1703;51.964;7.642;2023-05-16T08:35:57;13.60;99.90
3380;DHT22;1703;51.964;7.642;2023-05-16T08:38:24;13.50;99.90
3380;DHT22;1703;51.964;7.642;2023-05-16T08:40:50;13.60;99.90
3380;DHT22;1703;51.964;7.642;2023-05-16T08:43:17;13.80;99.90
3380;DHT22;1703;51.964;7.642;2023-05-16T08:45:44;13.80;99.90
3380;DHT22;1703;51.964;7.642;2023-05-16T08:48:11;13.90;99.90
3380;DHT22;1703;51.964;7.642;2023-05-16T08:50:42;13.90;99.90
3380;DHT22;1703;51.964;7.642;2023-05-16T08:53:11;13.70;99.90
3380;DHT22;1703;51.964;7.642;2023-05-16T08:55:40;13.50;99.90
3380;DHT22;1703;51.964;7.642;2023-05-16T08:58:08;13.40;99.90
3380;DHT22;1703;51.964;7.642;2023-05-16T09:00:35;13.60;99.90
3380;DHT22;1703;51.964;7.642;2023-05-16T09:03:01;13.80;99.90
3380;DHT22;1703;51.964;7.642;2023-05-16T09:05:29;13.80;99.90
3380;DHT22;1703;51.964;7.642;2023-05-16T09:07:57;14.00;99.90
3380;DHT22;1703;51.964;7.642;2023-05-16T09:10:24;14.10;99.90
3380;DHT22;1703;51.964;7.642;2023-05-16T09:12:51;14.10;99.90
3380;DHT22;1703;51.964;7.642;2023-05-16T09:15:19;13.80;99.90
3380;DHT22;1703;51.964;7.642;2023-05-16T09:17:46;13.80;99.90
3380;DHT22;1703;51.964;7.642;2023-05-16T09:20:14;13.90;99.90
3380;DHT22;1703;51.964;7.642;2023-05-16T09:22:50;14.00;99.90
3380;DHT22;1703;51.964;7.642;2023-05-16T09:25:20;14.10;99.90
3380;DHT22;1703;51.964;7.642;2023-05-16T09:27:47;14.30;99.90
3380;DHT22;1703;51.964;7.642;2023-05-16T09:30:14;14.40;99.90
3380;DHT22;1703;51.964;7.642;2023-05-16T09:32:45;14.20;99.90
3380;DHT22;1703;51.964;7.642;2023-05-16T09:35:14;14.20;99.90
3380;DHT22;1703;51.964;7.642;2023-05-16T09:37:43;14.30;99.90
3380;DHT22;1703;51.964;7.642;2023-05-16T09:40:11;14.40;99.90
3380;DHT22;1703;51.964;7.642;2023-05-16T09:42:40;14.50;99.90
3380;DHT22;1703;51.964;7.642;2023-05-16T09:45:11;14.60;99.90
3380;DHT22;1703;51.964;7.642;2023-05-16T09:47:39;14.70;99.90
3380;DHT22;1703;51.964;7.642;2023-05-16T09:50:12;14.80;99.90
3380;DHT22;1703;51.964;7.642;2023-05-16T09:52:40;15.00;99.90
3380;DHT22;1703;51.964;7.642;2023-05-16T09:55:08;15.30;99.90
3380;DHT22;1703;51.964;7.642;2023-05-16T09:57:36;15.40;99.90
3380;DHT22;1703;51.964;7.642;2023-05-16T10:00:09;15.40;99.90
3380;DHT22;1703;51.964;7.642;2023-05-16T10:02:36;15.10;99.90
3380;DHT22;1703;51.964;7.642;2023-05-16T10:05:04;15.20;99.90
3380;DHT22;1703;51.964;7.642;2023-05-16T10:07:31;15.10;99.90
3380;DHT22;1703;51.964;7.642;2023-05-16T10:10:00;15.20;99.90
3380;DHT22;1703;51.964;7.642;2023-05-16T10:12:30;15.30;99.90
3380;DHT22;1703;51.964;7.642;2023-05-16T10:14:58;15.30;99.90
3380;DHT22;1703;51.964;7.642;2023-05-16T10:17:30;15.40;99.90
3380;DHT22;1703;51.964;7.642;2023-05-16T10:20:00;15.30;99.90
3380;DHT22;1703;51.964;7.642;2023-05-16T10:22:32;15.40;99.90
3380;DHT22;1703;51.964;7.642;2023-05-16T10:25:06;15.40;99.90
3380;DHT22;1703;51.964;7.642;2023-05-16T10:27:34;15.30;99.90
3380;DHT22;1703;51.964;7.642;2023-05-16T10:30:02;15.10;99.90
3380;DHT22;1703;51.964;7.642;2023-05-16T10:32:32;15.10;99.90
3380;DHT22;1703;51.964;7.642;2023-05-16T10:34:59;14.90;99.90
3380;DHT22;1703;51.964;7.642;2023-05-16T10:37:28;15.00;99.90
3380;DHT22;1703;51.964;7.642;2023-05-16T10:39:56;15.10;99.90
3380;DHT22;1703;51.964;7.642;2023-05-16T10:42:23;15.20;99.90
3380;DHT22;1703;51.964;7.642;2023-05-16T10:44:53;15.20;99.90
3380;DHT22;1703;51.964;7.642;2023-05-16T10:47:20;15.30;99.90
3380;DHT22;1703;51.964;7.642;2023-05-16T10:49:49;15.30;99.90
3380;DHT22;1703;51.964;7.642;2023-05-16T10:52:16;15.50;99.90
3380;DHT22;1703;51.964;7.642;2023-05-16T10:54:48;15.60;99.90
3380;DHT22;1703;51.964;7.642;2023-05-16T10:57:17;15.60;99.90
3380;DHT22;1703;51.964;7.642;2023-05-16T10:59:46;15.70;99.90
3380;DHT22;1703;51.964;7.642;2023-05-16T11:02:27;15.60;99.90
3380;DHT22;1703;51.964;7.642;2023-05-16T11:04:59;15.50;99.90
3380;DHT22;1703;51.964;7.642;2023-05-16T11:07:30;15.50;99.90
3380;DHT22;1703;51.964;7.642;2023-05-16T11:10:03;15.80;99.90
3380;DHT22;1703;51.964;7.642;2023-05-16T11:12:51;16.00;99.90
3380;DHT22;1703;51.964;7.642;2023-05-16T11:15:22;16.00;99.90
3380;DHT22;1703;51.964;7.642;2023-05-16T11:17:50;16.00;99.90
3380;DHT22;1703;51.964;7.642;2023-05-16T11:20:28;16.10;99.90
3380;DHT22;1703;51.964;7.642;2023-05-16T11:23:26;16.00;99.90
3380;DHT22;1703;51.964;7.642;2023-05-16T11:25:54;16.10;99.90
3380;DHT22;1703;51.964;7.642;2023-05-16T11:28:23;15.90;99.90
3380;DHT22;1703;51.964;7.642;2023-05-16T11:30:52;15.70;99.90
3380;DHT22;1703;51.964;7.642;2023-05-16T11:33:22;15.80;99.90
3380;DHT22;1703;51.964;7.642;2023-05-16T11:36:04;16.10;99.90
3380;DHT22;1703;51.964;7.642;2023-05-16T11:38:31;16.00;99.90
3380;DHT22;1703;51.964;7.642;2023-05-16T11:41:05;16.00;99.90
3380;DHT22;1703;51.964;7.642;2023-05-16T11:43:39;15.70;99.90
3380;DHT22;1703;51.964;7.642;2023-05-16T11:46:10;15.50;99.90
3380;DHT22;1703;51.964;7.642;2023-05-16T11:48:37;15.50;99.90
3380;DHT22;1703;51.964;7.642;2023-05-16T11:51:05;15.30;99.90
3380;DHT22;1703;51.964;7.642;2023-05-16T11:53:32;15.30;99.90
3380;DHT22;1703;51.964;7.642;2023-05-16T11:55:59;15.30;99.90
3380;DHT22;1703;51.964;7.642;2023-05-16T11:58:27;15.50;99.90
3380;DHT22;1703;51.964;7.642;2023-05-16T12:00:54;15.70;99.90
3380;DHT22;1703;51.964;7.642;2023-05-16T12:03:21;15.80;99.90
3380;DHT22;1703;51.964;7.642;2023-05-16T12:05:49;15.90;99.90
3380;DHT22;1703;51.964;7.642;2023-05-16T12:08:19;15.90;99.90
3380;DHT22;1703;51.964;7.642;2023-05-16T12:10:48;15.90;99.90
3380;DHT22;1703;51.964;7.642;2023-05-16T12:13:16;15.90;99.90
3380;DHT22;1703;51.964;7.642;2023-05-16T12:15:43;15.90;99.90
3380;DHT22;1703;51.964;7.642;2023-05-16T12:18:11;16.00;99.90
3380;DHT22;1703;51.964;7.642;2023-05-16T12:20:38;16.00;99.90
3380;DHT22;1703;51.964;7.642;2023-05-16T12:23:09;16.00;99.90
3380;DHT22;1703;51.964;7.642;2023-05-16T12:25:43;16.00;99.90
3380;DHT22;1703;51.964;7.642;2023-05-16T12:28:11;16.00;99.90
3380;DHT22;1703;51.964;7.642;2023-05-16T12:30:40;16.10;99.90
3380;DHT22;1703;51.964;7.642;2023-05-16T12:33:08;16.30;99.90
3380;DHT22;1703;51.964;7.642;2023-05-16T12:35:37;16.60;99.90
3380;DHT22;1703;51.964;7.642;2023-05-16T12:38:05;16.80;99.90
3380;DHT22;1703;51.964;7.642;2023-05-16T12:40:33;16.80;99.90
3380;DHT22;1703;51.964;7.642;2023-05-16T12:43:02;16.80;99.90
3380;DHT22;1703;51.964;7.642;2023-05-16T12:45:29;16.80;99.90
3380;DHT22;1703;51.964;7.642;2023-05-16T12:47:56;16.60;99.90
3380;DHT22;1703;51.964;7.642;2023-05-16T12:50:25;16.70;99.90
3380;DHT22;1703;51.964;7.642;2023-05-16T12:52:54;16.60;99.90
3380;DHT22;1703;51.964;7.642;2023-05-16T12:55:23;16.30;99.90
3380;DHT22;1703;51.964;7.642;2023-05-16T12:57:50;16.10;99.90
3380;DHT22;1703;51.964;7.642;2023-05-16T13:00:19;16.20;99.90
3380;DHT22;1703;51.964;7.642;2023-05-16T13:02:47;16.10;99.90
3380;DHT22;1703;51.964;7.642;2023-05-16T13:05:14;16.10;99.90
3380;DHT22;1703;51.964;7.642;2023-05-16T13:07:42;16.30;99.90
3380;DHT22;1703;51.964;7.642;2023-05-16T13:10:10;16.50;99.90
3380;DHT22;1703;51.964;7.642;2023-05-16T13:12:37;16.60;99.90
3380;DHT22;1703;51.964;7.642;2023-05-16T13:15:05;16.80;99.90
3380;DHT22;1703;51.964;7.642;2023-05-16T13:17:33;16.70;99.90
3380;DHT22;1703;51.964;7.642;2023-05-16T13:20:03;16.80;99.90
3380;DHT22;1703;51.964;7.642;2023-05-16T13:22:33;17.50;99.90
3380;DHT22;1703;51.964;7.642;2023-05-16T13:25:00;18.30;99.90
3380;DHT22;1703;51.964;7.642;2023-05-16T13:27:27;19.20;99.90
3380;DHT22;1703;51.964;7.642;2023-05-16T13:29:54;20.10;99.90
3380;DHT22;1703;51.964;7.642;2023-05-16T13:32:20;21.40;97.80
3380;DHT22;1703;51.964;7.642;2023-05-16T13:34:49;22.00;91.90
3380;DHT22;1703;51.964;7.642;2023-05-16T13:37:16;23.00;87.30
3380;DHT22;1703;51.964;7.642;2023-05-16T13:39:43;23.90;82.90
3380;DHT22;1703;51.964;7.642;2023-05-16T13:42:10;24.50;75.90
3380;DHT22;1703;51.964;7.642;2023-05-16T13:44:37;23.50;73.20
3380;DHT22;1703;51.964;7.642;2023-05-16T13:47:04;22.50;74.00
3380;DHT22;1703;51.964;7.642;2023-05-16T13:49:31;21.40;75.20
3380;DHT22;1703;51.964;7.642;2023-05-16T13:51:59;19.80;75.40
3380;DHT22;1703;51.964;7.642;2023-05-16T13:54:27;19.50;82.50
3380;DHT22;1703;51.964;7.642;2023-05-16T13:56:53;19.00;87.20
3380;DHT22;1703;51.964;7.642;2023-05-16T13:59:20;18.80;87.10
3380;DHT22;1703;51.964;7.642;2023-05-16T14:01:47;18.70;90.10
3380;DHT22;1703;51.964;7.642;2023-05-16T14:04:15;18.30;91.10
3380;DHT22;1703;51.964;7.642;2023-05-16T14:06:42;18.20;93.30
3380;DHT22;1703;51.964;7.642;2023-05-16T14:09:10;18.00;93.60
3380;DHT22;1703;51.964;7.642;2023-05-16T14:11:39;17.90;93.80
3380;DHT22;1703;51.964;7.642;2023-05-16T14:14:06;17.80;94.70
3380;DHT22;1703;51.964;7.642;2023-05-16T14:16:33;17.60;94.70
3380;DHT22;1703;51.964;7.642;2023-05-16T14:19:00;17.40;94.70
3380;DHT22;1703;51.964;7.642;2023-05-16T14:21:26;17.20;95.80
3380;DHT22;1703;51.964;7.642;2023-05-16T14:23:53;16.80;94.60
3380;DHT22;1703;51.964;7.642;2023-05-16T14:26:21;16.60;95.80
3380;DHT22;1703;51.964;7.642;2023-05-16T14:28:49;16.40;95.50
3380;DHT22;1703;51.964;7.642;2023-05-16T14:31:16;16.30;95.40
3380;DHT22;1703;51.964;7.642;2023-05-16T14:33:43;16.40;96.00
3380;DHT22;1703;51.964;7.642;2023-05-16T14:36:10;16.60;96.70
3380;DHT22;1703;51.964;7.642;2023-05-16T14:38:37;16.50;96.30
3380;DHT22;1703;51.964;7.642;2023-05-16T14:41:04;16.60;97.70
3380;DHT22;1703;51.964;7.642;2023-05-16T14:43:32;16.80;97.90
3380;DHT22;1703;51.964;7.642;2023-05-16T14:45:59;16.80;99.10
3380;DHT22;1703;51.964;7.642;2023-05-16T14:48:26;16.90;99.30
3380;DHT22;1703;51.964;7.642;2023-05-16T14:50:54;17.00;99.90
3380;DHT22;1703;51.964;7.642;2023-05-16T14:53:20;17.00;99.90
3380;DHT22;1703;51.964;7.642;2023-05-16T14:55:47;17.00;99.90
3380;DHT22;1703;51.964;7.642;2023-05-16T14:58:14;17.00;99.90
3380;DHT22;1703;51.964;7.642;2023-05-16T15:00:42;17.00;99.90
3380;DHT22;1703;51.964;7.642;2023-05-16T15:03:09;16.80;99.90
3380;DHT22;1703;51.964;7.642;2023-05-16T15:05:36;16.80;99.90
3380;DHT22;1703;51.964;7.642;2023-05-16T15:08:03;16.70;99.90
3380;DHT22;1703;51.964;7.642;2023-05-16T15:10:30;16.50;99.90
3380;DHT22;1703;51.964;7.642;2023-05-16T15:12:57;16.30;99.90
3380;DHT22;1703;51.964;7.642;2023-05-16T15:15:24;16.20;99.90
3380;DHT22;1703;51.964;7.642;2023-05-16T15:17:52;16.30;99.90
3380;DHT22;1703;51.964;7.642;2023-05-16T15:20:19;16.20;99.90
3380;DHT22;1703;51.964;7.642;2023-05-16T15:22:46;16.00;99.90
3380;DHT22;1703;51.964;7.642;2023-05-16T15:25:13;15.90;99.90
3380;DHT22;1703;51.964;7.642;2023-05-16T15:27:40;15.80;99.90
3380;DHT22;1703;51.964;7.642;2023-05-16T15:30:08;15.80;99.90
3380;DHT22;1703;51.964;7.642;2023-05-16T15:32:35;15.70;99.90
3380;DHT22;1703;51.964;7.642;2023-05-16T15:35:03;15.80;99.90
3380;DHT22;1703;51.964;7.642;2023-05-16T15:37:30;15.80;99.90
3380;DHT22;1703;51.964;7.642;2023-05-16T15:39:57;15.80;99.90
3380;DHT22;1703;51.964;7.642;2023-05-16T15:42:24;15.80;99.90
3380;DHT22;1703;51.964;7.642;2023-05-16T15:44:51;15.60;99.90
3380;DHT22;1703;51.964;7.642;2023-05-16T15:47:18;15.40;99.90
3380;DHT22;1703;51.964;7.642;2023-05-16T15:49:45;15.30;99.90
3380;DHT22;1703;51.964;7.642;2023-05-16T15:52:13;15.10;99.90
3380;DHT22;1703;51.964;7.642;2023-05-16T15:54:40;15.00;99.90
3380;DHT22;1703;51.964;7.642;2023-05-16T15:57:06;14.90;99.90
3380;DHT22;1703;51.964;7.642;2023-05-16T15:59:33;14.90;99.90
3380;DHT22;1703;51.964;7.642;2023-05-16T16:02:00;15.00;99.90
3380;DHT22;1703;51.964;7.642;2023-05-16T16:04:29;15.00;99.90
3380;DHT22;1703;51.964;7.642;2023-05-16T16:06:56;15.10;99.90